createdAt,value
2018-12-30T00:05:13.170Z,7.31
2018-12-30T00:10:31.627Z,7.31
2018-12-30T00:15:50.168Z,7.31
2018-12-30T00:21:09.093Z,7.24
2018-12-30T00:26:29.214Z,7.22
2018-12-30T00:31:49.338Z,7.18
2018-12-30T00:37:08.240Z,7.12
2018-12-30T00:42:26.713Z,7.10
2018-12-30T00:47:47.221Z,7.14
2018-12-30T00:53:05.680Z,7.02
2018-12-30T00:58:24.139Z,7.01
2018-12-30T01:03:44.319Z,6.99
2018-12-30T01:09:02.929Z,6.98
2018-12-30T01:14:21.390Z,6.98
2018-12-30T01:19:39.960Z,7.00
2018-12-30T01:24:58.445Z,7.06
2018-12-30T01:30:17.084Z,7.03
2018-12-30T01:35:35.999Z,7.02
2018-12-30T01:46:21.926Z,6.96
2018-12-30T01:51:40.397Z,7.00
2018-12-30T01:56:59.006Z,6.96
2018-12-30T02:02:17.472Z,6.98
2018-12-30T02:13:06.469Z,6.99
2018-12-30T02:18:24.951Z,7.04
2018-12-30T02:23:43.411Z,7.05
2018-12-30T02:29:01.946Z,7.08
2018-12-30T02:34:22.145Z,7.05
2018-12-30T02:39:40.605Z,6.99
2018-12-30T02:44:59.061Z,7.03
2018-12-30T02:55:48.051Z,7.03
2018-12-30T03:01:06.525Z,7.03
2018-12-30T03:06:24.991Z,6.96
2018-12-30T03:11:43.534Z,6.91
2018-12-30T03:17:02.138Z,6.86
2018-12-30T03:22:20.605Z,6.86
2018-12-30T03:27:39.136Z,6.87
2018-12-30T03:32:57.638Z,6.88
2018-12-30T03:38:16.232Z,6.85
2018-12-30T03:43:34.770Z,6.87
2018-12-30T03:49:33.139Z,6.87
2018-12-30T03:54:51.602Z,6.88
2018-12-30T04:00:10.212Z,6.88
2018-12-30T04:05:28.679Z,6.89
2018-12-30T04:10:47.159Z,6.84
2018-12-30T04:16:05.636Z,6.83
2018-12-30T04:21:24.171Z,6.80
2018-12-30T04:26:42.702Z,6.86
2018-12-30T04:32:01.290Z,6.78
2018-12-30T04:37:19.806Z,6.77
2018-12-30T04:42:38.283Z,6.80
2018-12-30T04:48:16.084Z,6.79
2018-12-30T04:53:34.550Z,6.71
2018-12-30T04:58:53.013Z,6.75
2018-12-30T05:04:11.549Z,6.76
2018-12-30T05:09:30.033Z,6.80
2018-12-30T05:14:48.498Z,6.79
2018-12-30T05:20:07.230Z,6.83
2018-12-30T05:25:25.766Z,6.83
2018-12-30T05:30:44.231Z,6.73
2018-12-30T05:36:02.800Z,6.78
2018-12-30T05:41:21.314Z,6.77
2018-12-30T05:46:39.861Z,6.71
2018-12-30T05:51:58.333Z,6.74
2018-12-30T05:57:16.890Z,6.71
2018-12-30T06:02:35.363Z,6.67
2018-12-30T06:07:53.868Z,6.73
2018-12-30T06:13:12.754Z,6.69
2018-12-30T06:18:31.301Z,6.78
2018-12-30T06:29:20.219Z,6.74
2018-12-30T06:34:38.711Z,6.75
2018-12-30T06:39:57.433Z,6.79
2018-12-30T06:45:15.970Z,6.76
2018-12-30T06:50:34.430Z,6.72
2018-12-30T06:55:52.907Z,6.77
2018-12-30T07:01:11.592Z,6.68
2018-12-30T07:06:30.058Z,6.64
2018-12-30T07:11:48.619Z,6.70
2018-12-30T07:17:07.153Z,6.71
2018-12-30T07:22:25.618Z,6.69
2018-12-30T07:27:44.150Z,6.68
2018-12-30T07:33:02.608Z,6.62
2018-12-30T07:38:21.308Z,6.57
2018-12-30T07:43:39.787Z,6.65
2018-12-30T07:48:58.321Z,6.65
2018-12-30T07:54:16.791Z,6.59
2018-12-30T07:59:56.037Z,6.63
2018-12-30T08:05:14.992Z,6.56
2018-12-30T08:10:33.456Z,6.57
2018-12-30T08:15:52.240Z,6.59
2018-12-30T08:21:10.785Z,6.60
2018-12-30T08:26:29.243Z,6.64
2018-12-30T08:31:47.729Z,6.61
2018-12-30T08:42:36.683Z,6.58
2018-12-30T08:47:55.514Z,6.59
2018-12-30T08:53:14.054Z,6.62
2018-12-30T08:58:32.522Z,6.67
2018-12-30T09:03:51.000Z,6.71
2018-12-30T09:09:09.539Z,6.86
2018-12-30T09:14:28.081Z,6.91
2018-12-30T09:19:46.838Z,7.03
2018-12-30T09:25:05.758Z,7.09
2018-12-30T09:30:24.306Z,7.13
2018-12-30T09:35:42.774Z,7.20
2018-12-30T09:41:01.242Z,7.21
2018-12-30T09:51:50.229Z,7.28
2018-12-30T09:57:08.980Z,7.29
2018-12-30T10:13:28.429Z,7.44
2018-12-30T10:18:46.898Z,7.41
2018-12-30T10:24:05.439Z,7.41
2018-12-30T10:29:23.910Z,7.55
2018-12-30T10:40:12.819Z,7.60
2018-12-30T10:45:31.300Z,7.61
2018-12-30T10:50:49.770Z,7.55
2018-12-30T11:01:40.755Z,7.46
2018-12-30T11:06:59.478Z,7.49
2018-12-30T11:18:07.788Z,7.58
2018-12-30T11:23:26.260Z,7.57
2018-12-30T11:28:45.080Z,7.86
2018-12-30T11:39:34.197Z,7.63
2018-12-30T11:44:52.658Z,7.48
2018-12-30T11:50:11.525Z,7.44
2018-12-30T11:55:29.983Z,7.44
2018-12-30T12:00:48.587Z,7.54
2018-12-30T12:06:07.089Z,7.48
2018-12-30T12:11:25.620Z,7.44
2018-12-30T12:17:03.778Z,7.45
2018-12-30T12:27:54.923Z,7.50
2018-12-30T12:33:13.495Z,7.48
2018-12-30T12:38:31.958Z,7.51
2018-12-30T12:43:50.498Z,7.41
2018-12-30T12:49:08.999Z,7.51
2018-12-30T12:54:32.119Z,7.50
2018-12-30T13:05:20.269Z,7.66
2018-12-30T13:10:38.804Z,7.55
2018-12-30T13:16:03.294Z,7.51
2018-12-30T13:21:17.526Z,7.49
2018-12-30T13:26:35.999Z,7.46
2018-12-30T13:31:54.460Z,7.43
2018-12-30T13:37:13.006Z,7.49
2018-12-30T13:42:31.609Z,7.51
2018-12-30T13:47:50.071Z,7.45
2018-12-30T13:53:08.533Z,7.47
2018-12-30T13:58:27.071Z,7.49
2018-12-30T14:03:45.534Z,7.47
2018-12-30T14:09:17.798Z,7.44
2018-12-30T14:20:48.886Z,7.44
2018-12-30T14:26:07.356Z,7.35
2018-12-30T14:31:25.901Z,7.22
2018-12-30T14:36:44.370Z,7.15
2018-12-30T14:42:02.909Z,7.21
2018-12-30T14:47:21.515Z,7.16
2018-12-30T14:52:40.340Z,7.12
2018-12-30T14:57:58.805Z,6.94
2018-12-30T15:03:17.266Z,6.87
2018-12-30T15:08:35.737Z,6.92
2018-12-30T15:13:54.412Z,6.92
2018-12-30T15:19:12.882Z,7.03
2018-12-30T15:24:31.345Z,6.93
2018-12-30T15:29:49.806Z,6.96
2018-12-30T15:35:08.408Z,6.92
2018-12-30T15:40:26.874Z,6.84
2018-12-30T15:45:45.482Z,6.81
2018-12-30T15:51:04.096Z,6.80
2018-12-30T15:56:22.637Z,6.87
2018-12-30T16:01:41.251Z,6.79
2018-12-30T16:12:32.162Z,6.75
2018-12-30T16:18:10.043Z,6.61
2018-12-30T16:23:28.510Z,6.61
2018-12-30T16:28:47.008Z,6.64
2018-12-30T16:34:05.557Z,6.67
2018-12-30T16:39:24.016Z,6.57
2018-12-30T16:44:42.557Z,6.52
2018-12-30T16:50:01.025Z,6.47
2018-12-30T16:55:19.568Z,6.48
2018-12-30T17:00:38.027Z,6.47
2018-12-30T17:05:56.567Z,6.38
2018-12-30T17:11:15.036Z,6.45
2018-12-30T17:22:06.092Z,6.50
2018-12-30T17:27:24.723Z,6.42
2018-12-30T17:32:43.262Z,6.42
2018-12-30T17:38:01.807Z,6.42
2018-12-30T17:43:20.277Z,6.37
2018-12-30T17:54:15.129Z,6.39
2018-12-30T17:59:29.533Z,6.44
2018-12-30T18:04:47.998Z,6.50
2018-12-30T18:10:46.450Z,6.49
2018-12-30T18:16:05.072Z,6.52
2018-12-30T18:21:23.614Z,6.53
2018-12-30T18:26:42.149Z,6.58
2018-12-30T18:32:00.610Z,6.61
2018-12-30T18:37:19.153Z,6.69
2018-12-30T18:42:37.690Z,6.68
2018-12-30T18:47:56.234Z,6.70
2018-12-30T18:53:14.773Z,6.78
2018-12-30T18:58:33.247Z,6.76
2018-12-30T19:03:51.797Z,6.79
2018-12-30T19:09:10.335Z,6.83
2018-12-30T19:14:28.793Z,6.84
2018-12-30T19:19:47.400Z,6.89
2018-12-30T19:25:45.825Z,6.92
2018-12-30T19:31:04.373Z,6.94
2018-12-30T19:36:23.123Z,6.90
2018-12-30T19:41:41.661Z,6.88
2018-12-30T19:47:00.219Z,6.88
2018-12-30T19:52:18.758Z,6.92
2018-12-30T19:57:37.224Z,6.89
2018-12-30T20:02:55.682Z,6.89
2018-12-30T20:08:14.164Z,6.95
2018-12-30T20:13:32.817Z,6.95
2018-12-30T20:18:51.288Z,7.02
2018-12-30T20:24:09.902Z,7.04
2018-12-30T20:29:28.831Z,7.10
2018-12-30T20:40:17.989Z,7.03
2018-12-30T20:45:36.607Z,7.07
2018-12-30T20:50:55.343Z,7.00
2018-12-30T21:01:48.664Z,7.08
2018-12-30T21:07:07.422Z,7.09
2018-12-30T21:12:25.945Z,7.12
2018-12-30T21:17:44.722Z,7.07
2018-12-30T21:23:03.189Z,7.05
2018-12-30T21:28:21.670Z,7.05
2018-12-30T21:33:40.135Z,7.07
2018-12-30T21:38:58.609Z,7.09
2018-12-30T21:44:17.094Z,7.13
2018-12-30T21:49:35.590Z,7.15
2018-12-30T22:00:43.929Z,7.20
2018-12-30T22:06:21.847Z,7.28
2018-12-30T22:11:40.320Z,7.30
2018-12-30T22:16:58.829Z,7.27
2018-12-30T22:22:17.374Z,7.29
2018-12-30T22:27:35.837Z,7.30
2018-12-30T22:32:54.612Z,7.34
2018-12-30T22:38:13.384Z,7.35
2018-12-30T22:43:31.902Z,7.27
2018-12-30T22:49:09.714Z,7.35
2018-12-30T22:54:28.183Z,7.34
2018-12-30T22:59:47.940Z,7.39
2018-12-30T23:05:07.152Z,7.42
2018-12-30T23:10:25.718Z,7.48
2018-12-30T23:15:44.190Z,7.43
2018-12-30T23:21:02.668Z,7.48
2018-12-30T23:26:21.263Z,7.48
2018-12-30T23:31:39.718Z,7.52
2018-12-30T23:36:58.255Z,7.61
2018-12-30T23:42:16.804Z,7.60
2018-12-30T23:47:35.348Z,7.59
2018-12-30T23:52:53.888Z,7.63
2018-12-30T23:58:12.364Z,7.61
